createdAt,value
2022-11-25T00:02:19.772Z,3.63
2022-11-25T00:05:20.719Z,3.88
2022-11-25T00:08:21.722Z,3.75
2022-11-25T00:11:22.730Z,5.60
2022-11-25T00:14:19.764Z,4.30
2022-11-25T00:17:20.761Z,4.53
2022-11-25T00:20:21.762Z,3.83
2022-11-25T00:23:22.747Z,4.07
2022-11-25T00:26:30.741Z,3.70
2022-11-25T00:29:31.763Z,4.18
2022-11-25T00:32:32.713Z,3.95
2022-11-25T00:35:34.771Z,4.25
2022-11-25T00:38:35.726Z,4.13
2022-11-25T00:41:54.747Z,4.53
2022-11-25T00:44:55.745Z,4.13
2022-11-25T00:47:56.777Z,4.20
2022-11-25T00:50:57.728Z,3.85
2022-11-25T00:53:59.256Z,4.55
2022-11-25T00:56:59.749Z,4.43
2022-11-25T01:00:00.755Z,3.65
2022-11-25T01:03:01.745Z,4.53
2022-11-25T01:06:02.755Z,4.38
2022-11-25T01:09:03.777Z,4.22
2022-11-25T01:12:05.764Z,4.07
2022-11-25T01:15:06.761Z,4.00
2022-11-25T01:18:07.731Z,4.80
2022-11-25T01:21:08.751Z,4.10
2022-11-25T01:24:09.765Z,4.13
2022-11-25T01:27:10.761Z,3.90
2022-11-25T01:30:11.806Z,4.20
2022-11-25T01:33:12.770Z,4.40
2022-11-25T01:36:18.803Z,4.65
2022-11-25T01:39:19.758Z,4.00
2022-11-25T01:42:20.762Z,3.53
2022-11-25T01:45:45.789Z,3.63
2022-11-25T01:48:51.755Z,4.13
2022-11-25T01:52:00.771Z,4.38
2022-11-25T01:55:08.806Z,3.67
2022-11-25T01:58:26.777Z,3.65
2022-11-25T02:01:28.844Z,3.97
2022-11-25T02:04:30.802Z,3.88
2022-11-25T02:07:42.842Z,4.03
2022-11-25T02:10:45.794Z,3.50
2022-11-25T02:13:46.766Z,3.90
2022-11-25T02:16:47.849Z,3.72
2022-11-25T02:20:09.774Z,3.90
2022-11-25T02:23:12.766Z,4.00
2022-11-25T02:26:13.785Z,4.15
2022-11-25T02:29:16.738Z,3.78
2022-11-25T02:32:17.766Z,3.60
2022-11-25T02:35:40.772Z,3.33
2022-11-25T02:38:50.803Z,4.63
2022-11-25T02:41:54.780Z,3.80
2022-11-25T02:44:55.804Z,4.30
2022-11-25T02:47:56.774Z,3.78
2022-11-25T02:50:57.793Z,4.38
2022-11-25T02:53:58.777Z,4.80
2022-11-25T02:56:59.806Z,3.55
2022-11-25T03:00:02.993Z,4.75
2022-11-25T03:03:06.909Z,4.57
2022-11-25T03:06:07.799Z,4.32
2022-11-25T03:09:08.828Z,4.43
2022-11-25T03:12:28.049Z,4.05
2022-11-25T03:15:29.224Z,4.68
2022-11-25T03:18:29.798Z,4.97
2022-11-25T03:21:30.792Z,4.45
2022-11-25T03:24:31.828Z,4.13
2022-11-25T03:27:32.800Z,3.65
2022-11-25T03:30:36.821Z,3.58
2022-11-25T03:33:37.776Z,3.50
2022-11-25T03:36:38.884Z,3.17
2022-11-25T03:39:39.787Z,4.30
2022-11-25T03:42:40.811Z,4.07
2022-11-25T03:45:42.855Z,3.78
2022-11-25T03:48:43.819Z,3.80
2022-11-25T03:51:44.806Z,5.18
2022-11-25T03:54:46.812Z,4.18
2022-11-25T03:57:48.832Z,3.88
2022-11-25T04:00:51.830Z,3.60
2022-11-25T04:03:52.961Z,4.10
2022-11-25T04:06:53.803Z,4.15
2022-11-25T04:09:54.826Z,3.10
2022-11-25T04:12:58.813Z,3.95
2022-11-25T04:16:03.817Z,4.28
2022-11-25T04:19:04.808Z,4.18
2022-11-25T04:22:07.829Z,4.60
2022-11-25T04:25:11.819Z,4.40
2022-11-25T04:28:14.089Z,3.92
2022-11-25T04:31:18.910Z,4.35
2022-11-25T04:34:19.849Z,5.75
2022-11-25T04:37:20.854Z,4.93
2022-11-25T04:40:21.890Z,5.00
2022-11-25T04:43:31.025Z,4.82
2022-11-25T04:46:38.926Z,4.88
2022-11-25T04:49:39.835Z,5.28
2022-11-25T04:52:33.823Z,6.22
2022-11-25T04:55:34.824Z,5.97
2022-11-25T04:58:51.844Z,5.93
2022-11-25T05:01:52.900Z,6.28
2022-11-25T05:05:07.829Z,6.95
2022-11-25T05:08:09.837Z,6.38
2022-11-25T05:11:12.838Z,5.90
2022-11-25T05:14:13.903Z,5.85
2022-11-25T05:17:16.842Z,5.95
2022-11-25T05:20:18.862Z,5.88
2022-11-25T05:23:19.953Z,5.68
2022-11-25T05:26:20.882Z,5.95
2022-11-25T05:29:25.186Z,7.10
2022-11-25T05:32:25.869Z,7.25
2022-11-25T05:35:27.845Z,6.00
2022-11-25T05:38:28.844Z,6.45
2022-11-25T05:41:30.966Z,6.95
2022-11-25T05:44:33.854Z,6.65
2022-11-25T05:47:34.854Z,5.75
2022-11-25T05:50:35.848Z,6.28
2022-11-25T05:53:49.905Z,7.70
2022-11-25T05:56:54.933Z,7.30
2022-11-25T05:59:59.861Z,7.75
2022-11-25T06:03:05.006Z,7.90
2022-11-25T06:06:07.145Z,7.50
2022-11-25T06:09:08.872Z,8.50
2022-11-25T06:12:10.037Z,8.52
2022-11-25T06:15:15.860Z,8.13
2022-11-25T06:18:18.925Z,8.27
2022-11-25T06:21:20.851Z,7.03
2022-11-25T06:24:23.885Z,7.10
2022-11-25T06:27:44.011Z,7.45
2022-11-25T06:30:50.234Z,8.18
2022-11-25T06:33:59.881Z,7.57
2022-11-25T06:37:02.896Z,7.40
2022-11-25T06:40:03.899Z,7.78
2022-11-25T06:43:04.864Z,7.18
2022-11-25T06:46:06.009Z,7.03
2022-11-25T06:49:06.924Z,6.57
2022-11-25T06:52:07.912Z,6.95
2022-11-25T06:55:08.873Z,7.38
2022-11-25T06:58:28.387Z,8.73
2022-11-25T07:01:34.998Z,6.78
2022-11-25T07:04:36.123Z,7.38
2022-11-25T07:07:36.934Z,7.90
2022-11-25T07:10:37.894Z,7.07
2022-11-25T07:13:38.925Z,7.85
2022-11-25T07:16:39.899Z,7.50
2022-11-25T07:19:41.956Z,8.38
2022-11-25T07:22:42.898Z,8.05
2022-11-25T07:25:45.892Z,7.60
2022-11-25T07:28:47.940Z,7.50
2022-11-25T07:31:58.943Z,7.57
2022-11-25T07:34:59.878Z,7.78
2022-11-25T07:38:00.935Z,7.55
2022-11-25T07:41:01.926Z,5.90
2022-11-25T07:44:04.999Z,8.38
2022-11-25T07:47:15.892Z,8.02
2022-11-25T07:50:16.895Z,8.40
2022-11-25T07:53:17.970Z,9.02
2022-11-25T07:56:18.938Z,8.05
2022-11-25T07:59:20.897Z,8.18
2022-11-25T08:02:16.039Z,8.77
2022-11-25T08:05:16.927Z,8.40
2022-11-25T08:08:17.909Z,9.40
2022-11-25T08:11:23.956Z,8.38
2022-11-25T08:14:24.913Z,7.85
2022-11-25T08:17:26.947Z,8.73
2022-11-25T08:20:27.915Z,8.40
2022-11-25T08:23:28.915Z,8.48
2022-11-25T08:26:51.917Z,7.43
2022-11-25T08:29:52.938Z,8.57
2022-11-25T08:32:53.939Z,8.57
2022-11-25T08:35:54.944Z,7.10
2022-11-25T08:38:55.951Z,8.02
2022-11-25T08:41:56.916Z,6.47
2022-11-25T08:44:59.944Z,7.32
2022-11-25T08:48:00.932Z,6.40
2022-11-25T08:51:06.937Z,6.40
2022-11-25T08:54:07.980Z,6.38
2022-11-25T08:57:08.921Z,5.78
2022-11-25T09:00:10.928Z,6.03
2022-11-25T09:03:13.009Z,6.13
2022-11-25T09:06:14.953Z,5.32
2022-11-25T09:09:15.951Z,5.45
2022-11-25T09:12:16.941Z,5.25
2022-11-25T09:15:17.957Z,4.50
2022-11-25T09:18:21.986Z,4.47
2022-11-25T09:21:25.316Z,4.50
2022-11-25T09:24:25.949Z,5.00
2022-11-25T09:27:26.941Z,4.05
2022-11-25T09:30:27.933Z,3.90
2022-11-25T09:33:28.944Z,4.40
2022-11-25T09:36:30.966Z,3.22
2022-11-25T09:39:36.087Z,3.63
2022-11-25T09:43:12.944Z,3.80
2022-11-25T09:46:41.044Z,3.10
2022-11-25T09:49:53.982Z,3.85
2022-11-25T09:53:16.953Z,3.17
2022-11-25T09:56:23.950Z,2.97
2022-11-25T09:59:40.977Z,2.80
2022-11-25T10:02:52.105Z,3.47
2022-11-25T10:05:57.986Z,2.85
2022-11-25T10:09:26.984Z,3.13
2022-11-25T10:12:43.987Z,3.58
2022-11-25T10:15:53.026Z,2.60
2022-11-25T10:18:57.988Z,3.63
2022-11-25T10:21:58.950Z,2.92
2022-11-25T10:24:59.972Z,3.40
2022-11-25T10:28:09.995Z,2.40
2022-11-25T10:31:26.050Z,3.35
2022-11-25T10:34:53.993Z,2.72
2022-11-25T10:37:55.959Z,2.75
2022-11-25T10:40:57.979Z,2.83
2022-11-25T10:43:59.978Z,2.97
2022-11-25T10:50:27.007Z,2.85
2022-11-25T10:53:45.975Z,2.60
2022-11-25T10:56:56.028Z,3.17
2022-11-25T11:00:15.672Z,3.58
2022-11-25T11:03:29.991Z,2.87
2022-11-25T11:06:50.993Z,2.92
2022-11-25T11:09:54.986Z,3.00
2022-11-25T11:13:15.999Z,2.83
2022-11-25T11:16:17.113Z,3.63
2022-11-25T11:19:18.020Z,2.65
2022-11-25T11:22:30.019Z,2.80
2022-11-25T11:25:34.008Z,2.80
2022-11-25T11:28:52.014Z,2.92
2022-11-25T11:31:58.038Z,2.90
2022-11-25T11:35:16.998Z,2.50
2022-11-25T11:38:33.005Z,2.50
2022-11-25T11:41:53.997Z,3.03
2022-11-25T11:45:39.032Z,2.30
2022-11-25T11:48:53.532Z,3.72
2022-11-25T11:52:03.037Z,3.20
2022-11-25T11:55:07.030Z,3.13
2022-11-25T11:58:22.037Z,2.63
2022-11-25T12:01:56.115Z,3.20
2022-11-25T12:05:24.029Z,3.00
2022-11-25T12:08:29.052Z,2.85
2022-11-25T12:11:34.025Z,3.78
2022-11-25T12:14:46.047Z,3.42
2022-11-25T12:17:52.053Z,2.97
2022-11-25T12:21:09.044Z,2.85
2022-11-25T12:24:13.350Z,3.42
2022-11-25T12:27:24.023Z,2.95
2022-11-25T12:30:34.120Z,2.47
2022-11-25T12:33:57.052Z,3.28
2022-11-25T12:36:59.073Z,3.05
2022-11-25T12:40:09.037Z,2.95
2022-11-25T12:43:26.099Z,2.55
2022-11-25T12:46:39.044Z,3.03
2022-11-25T12:49:42.068Z,3.58
2022-11-25T12:53:11.062Z,3.08
2022-11-25T12:56:13.112Z,3.22
2022-11-25T12:59:50.061Z,3.05
2022-11-25T13:03:34.051Z,2.53
2022-11-25T13:06:45.056Z,3.08
2022-11-25T13:10:23.060Z,3.78
2022-11-25T13:13:35.531Z,3.25
2022-11-25T13:16:36.452Z,3.75
2022-11-25T13:19:37.078Z,3.03
2022-11-25T13:22:38.078Z,3.22
2022-11-25T13:25:39.048Z,2.55
2022-11-25T13:28:52.085Z,3.45
2022-11-25T13:32:15.086Z,2.88
2022-11-25T13:35:35.093Z,2.55
2022-11-25T13:38:49.105Z,3.55
2022-11-25T13:41:55.097Z,2.10
2022-11-25T13:45:08.045Z,2.22
2022-11-25T13:48:10.087Z,2.38
2022-11-25T13:51:33.073Z,1.83
2022-11-25T13:54:36.412Z,2.08
2022-11-25T13:57:45.092Z,1.98
2022-11-25T14:00:49.093Z,2.40
2022-11-25T14:04:01.093Z,2.30
2022-11-25T14:07:20.436Z,2.13
2022-11-25T14:10:39.068Z,1.90
2022-11-25T14:14:05.112Z,2.20
2022-11-25T14:17:27.093Z,2.05
2022-11-25T14:20:35.132Z,2.85
2022-11-25T14:24:07.106Z,2.45
2022-11-25T14:27:12.134Z,2.20
2022-11-25T14:30:21.106Z,2.58
2022-11-25T14:33:25.117Z,2.60
2022-11-25T14:36:28.092Z,2.33
2022-11-25T14:39:46.112Z,2.50
2022-11-25T14:42:51.102Z,2.15
2022-11-25T14:45:52.183Z,3.00
2022-11-25T14:48:53.095Z,2.75
2022-11-25T14:51:55.097Z,2.72
2022-11-25T14:54:58.109Z,4.10
2022-11-25T14:57:59.088Z,2.38
2022-11-25T15:01:13.128Z,2.33
2022-11-25T15:04:16.140Z,2.05
2022-11-25T15:07:32.144Z,2.53
2022-11-25T15:10:56.111Z,3.03
2022-11-25T15:13:59.139Z,1.98
2022-11-25T15:17:00.198Z,2.88
2022-11-25T15:20:01.199Z,2.58
2022-11-25T15:23:04.131Z,2.35
2022-11-25T15:26:06.135Z,2.20
2022-11-25T15:29:09.168Z,2.17
2022-11-25T15:32:12.190Z,2.30
2022-11-25T15:35:14.139Z,2.70
2022-11-25T15:38:31.141Z,2.50
2022-11-25T15:41:33.142Z,4.00
2022-11-25T15:44:52.172Z,3.60
2022-11-25T15:47:53.172Z,3.40
2022-11-25T15:50:54.150Z,2.63
2022-11-25T15:53:56.179Z,2.83
2022-11-25T15:57:02.122Z,3.03
2022-11-25T16:00:11.125Z,2.47
2022-11-25T16:03:12.138Z,2.78
2022-11-25T16:06:13.137Z,3.10
2022-11-25T16:09:15.163Z,2.60
2022-11-25T16:12:20.150Z,3.47
2022-11-25T16:15:30.149Z,2.90
2022-11-25T16:18:40.350Z,3.38
2022-11-25T16:21:49.120Z,3.05
2022-11-25T16:25:02.029Z,2.88
2022-11-25T16:28:07.176Z,2.55
2022-11-25T16:31:09.136Z,2.50
2022-11-25T16:34:15.136Z,3.50
2022-11-25T16:37:16.168Z,2.92
2022-11-25T16:40:18.177Z,2.75
2022-11-25T16:43:21.143Z,3.05
2022-11-25T16:46:27.208Z,2.88
2022-11-25T16:49:29.167Z,3.38
2022-11-25T16:52:30.154Z,2.40
2022-11-25T16:55:31.261Z,2.75
2022-11-25T16:58:28.158Z,2.70
2022-11-25T17:01:31.219Z,2.85
2022-11-25T17:04:32.159Z,2.90
2022-11-25T17:07:35.876Z,5.40
2022-11-25T17:10:36.176Z,6.60
2022-11-25T17:13:37.161Z,4.25
2022-11-25T17:16:40.188Z,3.67
2022-11-25T17:19:41.587Z,3.38
2022-11-25T17:22:42.180Z,3.60
2022-11-25T17:25:43.198Z,3.97
2022-11-25T17:28:44.188Z,4.03
2022-11-25T17:31:46.276Z,3.92
2022-11-25T17:34:47.164Z,3.90
2022-11-25T17:37:48.178Z,5.72
2022-11-25T17:40:49.145Z,3.80
2022-11-25T17:43:51.216Z,4.00
2022-11-25T17:46:52.185Z,4.10
2022-11-25T17:49:53.237Z,4.20
2022-11-25T17:52:54.193Z,3.95
2022-11-25T17:55:55.222Z,4.20
2022-11-25T17:58:56.189Z,3.80
2022-11-25T18:01:57.300Z,3.80
2022-11-25T18:04:58.186Z,4.70
2022-11-25T18:07:59.286Z,3.95
2022-11-25T18:11:00.203Z,4.20
2022-11-25T18:14:02.209Z,6.00
2022-11-25T18:17:03.266Z,5.75
2022-11-25T18:20:04.196Z,5.30
2022-11-25T18:23:06.477Z,5.93
2022-11-25T18:26:10.378Z,5.20
2022-11-25T18:29:11.255Z,8.18
2022-11-25T18:32:12.181Z,6.60
2022-11-25T18:35:13.203Z,5.18
2022-11-25T18:38:14.217Z,5.55
2022-11-25T18:41:15.203Z,4.90
2022-11-25T18:44:16.201Z,4.72
2022-11-25T18:47:12.228Z,5.10
2022-11-25T18:50:06.455Z,5.47
2022-11-25T18:53:08.212Z,5.00
2022-11-25T18:56:12.518Z,5.75
2022-11-25T18:59:15.203Z,7.55
2022-11-25T19:02:16.256Z,6.10
2022-11-25T19:05:29.190Z,6.05
2022-11-25T19:08:30.195Z,6.05
2022-11-25T19:11:33.214Z,6.28
2022-11-25T19:14:49.228Z,6.28
2022-11-25T19:17:50.326Z,6.00
2022-11-25T19:20:51.217Z,6.82
2022-11-25T19:23:52.262Z,8.75
2022-11-25T19:26:57.224Z,9.68
2022-11-25T19:29:58.400Z,9.70
2022-11-25T19:33:04.265Z,7.68
2022-11-25T19:35:58.267Z,7.28
2022-11-25T19:38:59.238Z,6.95
2022-11-25T19:42:01.206Z,7.55
2022-11-25T19:45:04.372Z,7.47
2022-11-25T19:48:05.259Z,7.38
2022-11-25T19:51:06.221Z,7.00
2022-11-25T19:54:07.237Z,6.40
2022-11-25T19:57:08.203Z,6.90
2022-11-25T20:00:09.368Z,6.57
2022-11-25T20:03:10.214Z,8.00
2022-11-25T20:06:04.265Z,7.55
2022-11-25T20:09:08.018Z,7.80
2022-11-25T20:12:13.365Z,8.73
2022-11-25T20:15:14.434Z,8.63
2022-11-25T20:18:18.185Z,7.50
2022-11-25T20:21:19.264Z,7.97
2022-11-25T20:24:26.432Z,9.75
2022-11-25T20:27:27.236Z,9.57
2022-11-25T20:30:34.259Z,9.55
2022-11-25T20:33:35.267Z,9.20
2022-11-25T20:36:46.239Z,8.80
2022-11-25T20:39:47.281Z,9.95
2022-11-25T20:42:49.244Z,9.55
2022-11-25T20:45:50.380Z,9.52
2022-11-25T20:48:51.316Z,9.88
2022-11-25T20:51:54.276Z,10.18
2022-11-25T20:54:55.263Z,9.75
2022-11-25T20:57:57.285Z,7.45
2022-11-25T21:00:58.440Z,9.18
2022-11-25T21:04:00.355Z,10.82
2022-11-25T21:07:01.237Z,10.57
2022-11-25T21:10:02.401Z,9.75
2022-11-25T21:13:03.266Z,10.40
2022-11-25T21:16:04.344Z,9.85
2022-11-25T21:19:05.349Z,9.85
2022-11-25T21:22:06.302Z,10.38
2022-11-25T21:25:08.288Z,7.65
2022-11-25T21:28:09.615Z,10.00
2022-11-25T21:31:07.113Z,9.82
2022-11-25T21:34:12.301Z,10.63
2022-11-25T21:37:13.271Z,10.68
2022-11-25T21:40:14.299Z,10.10
2022-11-25T21:43:21.040Z,10.50
2022-11-25T21:46:27.376Z,10.48
2022-11-25T21:49:28.326Z,11.10
2022-11-25T21:52:29.272Z,11.23
2022-11-25T21:55:30.411Z,10.82
2022-11-25T21:58:41.346Z,11.65
2022-11-25T22:01:42.463Z,11.77
2022-11-25T22:04:43.710Z,11.73
2022-11-25T22:07:44.325Z,13.73
2022-11-25T22:10:45.321Z,13.82
2022-11-25T22:13:51.349Z,13.57
2022-11-25T22:16:53.327Z,12.57
2022-11-25T22:19:54.409Z,13.23
2022-11-25T22:22:55.296Z,12.95
2022-11-25T22:25:56.401Z,12.50
2022-11-25T22:29:02.317Z,12.75
2022-11-25T22:32:05.998Z,12.63
2022-11-25T22:35:10.329Z,12.43
2022-11-25T22:38:12.319Z,12.75
2022-11-25T22:41:16.340Z,10.75
2022-11-25T22:44:17.317Z,11.63
2022-11-25T22:47:18.321Z,11.20
2022-11-25T22:50:41.387Z,12.35
2022-11-25T22:53:42.305Z,11.15
2022-11-25T22:56:43.306Z,12.02
2022-11-25T22:59:44.772Z,12.43
2022-11-25T23:02:46.381Z,11.57
2022-11-25T23:05:49.317Z,12.18
2022-11-25T23:08:50.320Z,11.13
2022-11-25T23:11:51.343Z,10.88
2022-11-25T23:14:52.362Z,11.13
2022-11-25T23:17:54.374Z,12.50
2022-11-25T23:20:55.347Z,11.07
2022-11-25T23:23:57.405Z,11.10
2022-11-25T23:26:51.329Z,11.38
2022-11-25T23:29:52.327Z,11.95
2022-11-25T23:32:53.321Z,11.20
2022-11-25T23:35:54.321Z,12.23
2022-11-25T23:38:58.295Z,12.48
2022-11-25T23:41:59.333Z,12.27
2022-11-25T23:45:00.365Z,11.73
2022-11-25T23:48:03.324Z,13.43
2022-11-25T23:51:04.322Z,12.88
2022-11-25T23:54:05.625Z,13.27
2022-11-25T23:57:06.298Z,12.77
